Time;durP1;ratioP1;P1;durP2;ratioP2;P2;SDS_P1;SDS_P2;PMS_P1;PMS_P2;Temp;Humidity;BMP_temperature;BMP_pressure;BME280_temperature;BME280_humidity;BME280_pressure;Samples;Min_cycle;Max_cycle;Signal;HPM_P1;HPM_P2
2023/03/23 00:00:31;;;;;;;7.33;3.47;;;;;;;10.84;100.00;100097.59;5261973;28;20098;-67
2023/03/23 00:03:03;;;;;;;6.78;3.50;;;;;;;10.86;100.00;100114.88;5262117;28;20021;-67
2023/03/23 00:05:36;;;;;;;8.73;3.40;;;;;;;10.87;100.00;100110.56;5262410;28;20384;-67
2023/03/23 00:08:12;;;;;;;4.75;3.38;;;;;;;10.88;100.00;100099.22;5262745;28;20032;-68
2023/03/23 00:10:43;;;;;;;5.85;3.40;;;;;;;10.91;100.00;100093.91;5262886;28;20037;-67
2023/03/23 00:13:19;;;;;;;6.10;2.80;;;;;;;10.91;100.00;100088.69;5262049;28;20068;-68
2023/03/23 00:15:54;;;;;;;7.05;3.53;;;;;;;10.91;100.00;100110.41;5262005;28;20040;-66
2023/03/23 00:18:25;;;;;;;6.35;3.50;;;;;;;10.92;100.00;100121.72;5262298;28;20485;-67
2023/03/23 00:20:58;;;;;;;5.57;2.60;;;;;;;10.95;100.00;100109.44;5260862;28;20227;-67
2023/03/23 00:23:29;;;;;;;6.25;3.28;;;;;;;10.98;100.00;100090.28;5260385;28;20029;-66
2023/03/23 00:26:01;;;;;;;6.53;3.07;;;;;;;10.98;100.00;100094.63;5261842;28;20029;-69
2023/03/23 00:28:33;;;;;;;5.00;3.38;;;;;;;11.00;100.00;100108.50;5260905;28;20036;-66
2023/03/23 00:31:07;;;;;;;4.23;2.97;;;;;;;11.01;100.00;100113.66;5262135;28;20044;-67
2023/03/23 00:33:40;;;;;;;4.85;3.00;;;;;;;11.05;100.00;100111.84;5261795;28;20047;-68
2023/03/23 00:36:13;;;;;;;7.03;3.85;;;;;;;11.13;100.00;100121.16;5261817;28;20036;-67
2023/03/23 00:38:46;;;;;;;10.20;3.60;;;;;;;11.13;100.00;100109.88;5261408;28;20044;-67
2023/03/23 00:41:18;;;;;;;6.97;2.97;;;;;;;11.12;100.00;100108.16;5262076;28;20465;-68
2023/03/23 00:43:51;;;;;;;7.23;3.83;;;;;;;11.10;100.00;100115.19;5243753;28;20032;-68
2023/03/23 00:46:23;;;;;;;5.55;2.97;;;;;;;11.13;100.00;100109.88;5243604;28;20021;-67
2023/03/23 00:48:56;;;;;;;5.55;3.45;;;;;;;11.17;100.00;100097.59;5261776;28;20041;-67
2023/03/23 00:51:27;;;;;;;6.75;3.25;;;;;;;11.03;100.00;100088.41;5262483;28;20033;-68
2023/03/23 00:53:59;;;;;;;4.90;3.17;;;;;;;10.92;100.00;100091.28;5265831;28;20059;-66
2023/03/23 00:56:30;;;;;;;5.57;3.40;;;;;;;10.85;100.00;100089.72;5265399;28;20170;-66
2023/03/23 00:59:03;;;;;;;5.37;3.87;;;;;;;10.80;100.00;100090.72;5265717;28;20484;-66
2023/03/23 01:01:35;;;;;;;6.28;4.10;;;;;;;10.69;100.00;100096.19;5266017;28;20022;-67
2023/03/23 01:04:08;;;;;;;7.28;3.75;;;;;;;10.54;100.00;100069.59;5265254;28;20025;-67
2023/03/23 01:06:42;;;;;;;6.85;4.60;;;;;;;10.47;100.00;100064.59;5266066;28;20044;-67
2023/03/23 01:09:16;;;;;;;6.80;3.55;;;;;;;10.44;100.00;100067.28;5265237;28;20480;-68
2023/03/23 01:11:50;;;;;;;5.82;3.85;;;;;;;10.43;100.00;100076.81;5265220;28;20033;-68
2023/03/23 01:14:21;;;;;;;8.45;3.92;;;;;;;10.48;100.00;100063.69;5265183;28;20491;-68
2023/03/23 01:16:53;;;;;;;8.17;3.80;;;;;;;10.56;100.00;100038.28;5265739;28;20033;-67
2023/03/23 01:19:24;;;;;;;7.47;3.73;;;;;;;10.67;100.00;100036.28;5264962;28;20429;-68
2023/03/23 01:21:55;;;;;;;5.77;3.17;;;;;;;10.75;100.00;100041.31;5264967;28;20037;-67
2023/03/23 01:24:27;;;;;;;5.73;3.30;;;;;;;10.86;100.00;100041.03;5265164;28;20025;-68
2023/03/23 01:27:01;;;;;;;5.00;3.80;;;;;;;10.94;100.00;100047.75;5263712;28;20033;-67
2023/03/23 01:29:33;;;;;;;7.43;3.30;;;;;;;10.92;100.00;100033.06;5265148;28;20140;-68
2023/03/23 01:32:05;;;;;;;8.35;4.38;;;;;;;10.97;100.00;100035.56;5264819;28;20032;-68
2023/03/23 01:34:36;;;;;;;4.80;3.17;;;;;;;11.01;100.00;100029.34;5265026;28;20461;-68
2023/03/23 01:37:08;;;;;;;6.23;3.30;;;;;;;11.02;100.00;100029.31;5265208;28;20032;-68
2023/03/23 01:39:40;;;;;;;5.60;4.00;;;;;;;11.06;100.00;100032.69;5264634;28;20190;-67
2023/03/23 01:42:12;;;;;;;6.67;3.60;;;;;;;11.11;100.00;100042.09;5263158;28;20401;-68
2023/03/23 01:44:46;;;;;;;4.70;3.13;;;;;;;11.15;100.00;100042.03;5264693;28;20033;-68
2023/03/23 01:47:23;;;;;;;5.18;3.17;;;;;;;11.17;100.00;100053.25;5265554;28;20025;-68
2023/03/23 01:49:54;;;;;;;5.55;3.38;;;;;;;11.17;100.00;100045.44;5265113;28;20037;-68
2023/03/23 01:52:29;;;;;;;5.10;3.47;;;;;;;11.19;100.00;100047.13;5264570;28;20575;-68
2023/03/23 01:55:00;;;;;;;7.82;3.65;;;;;;;11.27;100.00;100049.50;5264526;28;20120;-68
2023/03/23 01:57:33;;;;;;;5.87;3.57;;;;;;;11.26;100.00;100038.22;5264753;28;20024;-68
2023/03/23 02:00:14;;;;;;;4.53;3.33;;;;;;;11.34;100.00;100024.97;5264456;28;20049;-68
2023/03/23 02:02:49;;;;;;;5.10;3.50;;;;;;;11.34;100.00;100013.69;5264443;28;20472;-68
2023/03/23 02:05:26;;;;;;;5.65;3.40;;;;;;;11.37;100.00;100003.16;5263741;28;20473;-68
2023/03/23 02:08:02;;;;;;;6.38;4.22;;;;;;;11.36;100.00;100007.50;5263805;28;20086;-67
2023/03/23 02:10:35;;;;;;;4.40;3.60;;;;;;;11.29;100.00;100011.19;5264840;28;20044;-68
2023/03/23 02:13:10;;;;;;;5.22;4.03;;;;;;;11.36;100.00;100004.03;5263717;28;20116;-68
2023/03/23 02:16:06;;;;;;;5.60;3.17;;;;;;;11.46;100.00;99997.66;5264378;28;20052;-68
2023/03/23 02:18:40;;;;;;;6.72;3.08;;;;;;;11.42;100.00;99989.06;5264425;28;20029;-68
2023/03/23 02:21:45;;;;;;;6.05;3.47;;;;;;;11.35;100.00;99990.16;5264110;28;20025;-68
2023/03/23 02:24:43;;;;;;;5.07;2.97;;;;;;;11.35;100.00;99986.66;5264767;28;20037;-68
2023/03/23 02:27:28;;;;;;;6.80;3.55;;;;;;;11.40;100.00;99993.47;5264187;28;20028;-68
2023/03/23 02:30:27;;;;;;;4.43;3.15;;;;;;;11.39;100.00;100001.34;5263738;28;20037;-68
2023/03/23 02:33:17;;;;;;;4.97;3.33;;;;;;;11.45;100.00;100001.19;5264171;28;20029;-67
2023/03/23 02:36:33;;;;;;;5.13;3.70;;;;;;;11.40;100.00;99983.03;5263493;28;20035;-68
2023/03/23 02:39:13;;;;;;;4.93;3.10;;;;;;;11.39;100.00;99985.69;5243888;28;20554;-68
2023/03/23 02:41:54;;;;;;;6.05;3.08;;;;;;;11.37;100.00;99980.50;5263369;28;20029;-68
2023/03/23 02:44:29;;;;;;;6.53;3.03;;;;;;;11.40;100.00;99988.25;5263704;28;20465;-68
2023/03/23 02:47:05;;;;;;;4.70;3.10;;;;;;;11.46;99.93;99987.22;5263934;28;20457;-68
2023/03/23 02:49:40;;;;;;;4.93;3.22;;;;;;;11.50;99.66;99988.84;5245771;28;20033;-67
2023/03/23 02:52:16;;;;;;;5.28;3.40;;;;;;;11.53;99.43;99987.88;5263392;28;20028;-68
2023/03/23 02:54:49;;;;;;;6.15;3.38;;;;;;;11.49;99.83;100001.03;5263175;28;20483;-68
2023/03/23 02:57:24;;;;;;;6.55;3.05;;;;;;;11.56;99.24;99998.22;5262591;28;20069;-68
2023/03/23 02:59:55;;;;;;;4.70;2.95;;;;;;;11.55;99.48;99996.53;5262998;28;20371;-68
2023/03/23 03:02:35;;;;;;;3.87;3.00;;;;;;;11.62;98.89;99998.06;5262968;28;20049;-68
2023/03/23 03:05:13;;;;;;;4.65;3.22;;;;;;;11.62;98.66;99996.31;5262925;28;20017;-68
2023/03/23 03:07:54;;;;;;;4.32;3.17;;;;;;;11.62;98.33;99987.63;5261611;28;20053;-67
2023/03/23 03:10:32;;;;;;;4.05;3.08;;;;;;;11.68;97.95;99996.13;5263269;28;20070;-68
2023/03/23 03:13:42;;;;;;;6.47;3.33;;;;;;;11.65;98.26;99997.97;5262836;28;20031;-68
2023/03/23 03:16:39;;;;;;;5.25;3.25;;;;;;;11.74;97.80;99989.03;5239720;28;20112;-68
2023/03/23 03:19:20;;;;;;;4.90;2.85;;;;;;;11.73;97.55;99997.75;5245118;28;20025;-68
2023/03/23 03:21:54;;;;;;;4.97;3.10;;;;;;;11.67;98.24;100006.59;5263368;28;20032;-67
2023/03/23 03:24:28;;;;;;;4.22;2.95;;;;;;;11.62;98.28;99993.72;5262730;28;20063;-67
2023/03/23 03:27:03;;;;;;;6.53;3.85;;;;;;;11.64;97.83;100002.34;5262578;28;20111;-68
2023/03/23 03:29:41;;;;;;;5.15;3.30;;;;;;;11.67;97.63;99988.31;5263162;28;20029;-66
2023/03/23 03:32:18;;;;;;;5.50;2.90;;;;;;;11.64;97.17;100002.34;5263204;28;20075;-67
2023/03/23 03:34:50;;;;;;;4.30;2.92;;;;;;;11.63;96.97;99989.34;5245356;28;20449;-67
2023/03/23 03:37:22;;;;;;;4.30;3.07;;;;;;;11.57;97.45;100000.78;5244601;28;20109;-67
2023/03/23 03:39:53;;;;;;;4.25;3.03;;;;;;;11.59;97.03;100008.59;5262225;28;20037;-67
2023/03/23 03:42:24;;;;;;;4.73;3.17;;;;;;;11.61;96.44;99997.22;5262193;28;20040;-69
2023/03/23 03:44:56;;;;;;;6.47;3.10;;;;;;;11.66;95.70;100000.53;5262481;28;20090;-68
2023/03/23 03:47:27;;;;;;;6.13;2.90;;;;;;;11.68;95.32;100003.09;5262425;28;20036;-67
2023/03/23 03:49:59;;;;;;;7.00;3.37;;;;;;;11.70;95.26;100009.13;5262731;28;20088;-67
2023/03/23 03:52:31;;;;;;;7.03;3.00;;;;;;;11.71;94.37;99997.78;5262343;28;20033;-67
2023/03/23 03:55:03;;;;;;;5.82;3.42;;;;;;;11.73;94.16;99997.75;5261988;28;20033;-67
2023/03/23 03:57:34;;;;;;;4.43;2.53;;;;;;;11.74;93.46;100002.06;5262068;28;20372;-67
2023/03/23 04:00:14;;;;;;;5.77;3.07;;;;;;;11.73;92.89;100010.81;5262549;28;20049;-67
2023/03/23 04:02:50;;;;;;;6.32;2.55;;;;;;;11.71;93.04;100026.50;5261953;28;20037;-67
2023/03/23 04:05:23;;;;;;;7.57;3.25;;;;;;;11.72;92.56;100014.31;5262231;28;20032;-67
2023/03/23 04:08:01;;;;;;;7.50;2.50;;;;;;;11.68;92.73;100008.31;5262542;28;20128;-67
2023/03/23 04:10:33;;;;;;;8.00;3.03;;;;;;;11.66;92.38;100018.81;5262236;28;20067;-67
2023/03/23 04:13:04;;;;;;;7.38;2.78;;;;;;;11.75;91.52;100011.59;5262693;28;20068;-67
2023/03/23 04:15:36;;;;;;;7.20;3.57;;;;;;;11.75;91.29;100024.66;5261202;28;20068;-67
2023/03/23 04:18:08;;;;;;;9.63;3.57;;;;;;;11.62;92.22;100022.44;5261383;28;20337;-67
2023/03/23 04:20:40;;;;;;;7.88;3.17;;;;;;;11.72;90.99;100035.19;5262095;28;20036;-67
2023/03/23 04:23:11;;;;;;;5.27;2.33;;;;;;;11.71;90.85;100033.50;5261834;28;20488;-66
2023/03/23 04:25:43;;;;;;;7.97;2.80;;;;;;;11.64;91.05;100027.56;5262263;28;20437;-67
2023/03/23 04:28:18;;;;;;;11.10;3.00;;;;;;;11.63;90.91;100026.72;5265370;28;20033;-67
2023/03/23 04:30:54;;;;;;;3.97;2.47;;;;;;;11.70;90.21;100037.84;5266277;28;20460;-67
2023/03/23 04:33:28;;;;;;;9.48;3.05;;;;;;;11.70;90.03;100042.22;5265991;28;20058;-66
2023/03/23 04:36:02;;;;;;;6.85;2.63;;;;;;;11.69;89.99;100036.16;5266007;28;20505;-66
2023/03/23 04:38:34;;;;;;;7.70;2.40;;;;;;;11.70;89.76;100045.66;5265707;28;20112;-66
2023/03/23 04:41:05;;;;;;;7.70;2.17;;;;;;;11.67;89.83;100028.38;5266201;28;20116;-66
2023/03/23 04:43:41;;;;;;;10.50;2.75;;;;;;;11.69;89.78;100057.03;5265456;28;20103;-66
2023/03/23 04:46:17;;;;;;;6.25;2.17;;;;;;;11.68;89.73;100042.25;5266016;28;20065;-66
2023/03/23 04:48:49;;;;;;;7.63;2.42;;;;;;;11.62;90.12;100032.00;5266161;28;20064;-66
2023/03/23 04:51:20;;;;;;;8.80;2.87;;;;;;;11.71;89.29;100059.59;5265869;28;20067;-66
2023/03/23 04:53:52;;;;;;;8.60;2.93;;;;;;;11.62;90.30;100045.91;5265710;28;20070;-66
2023/03/23 04:56:24;;;;;;;9.48;2.53;;;;;;;11.50;91.08;100044.50;5265415;28;20027;-66
2023/03/23 04:58:55;;;;;;;9.20;2.93;;;;;;;11.56;90.52;100046.09;5264838;28;20552;-66
2023/03/23 05:01:27;;;;;;;9.60;2.77;;;;;;;11.59;90.19;100047.75;5265397;28;20183;-67
2023/03/23 05:04:00;;;;;;;8.82;2.65;;;;;;;11.50;91.42;100043.66;5265454;28;20442;-66
2023/03/23 05:06:31;;;;;;;7.93;2.58;;;;;;;11.55;90.86;100041.75;5265639;28;20384;-67
2023/03/23 05:09:03;;;;;;;5.50;2.60;;;;;;;11.54;90.49;100042.66;5247460;28;20044;-67
2023/03/23 05:11:34;;;;;;;9.57;2.60;;;;;;;11.50;91.23;100044.50;5264627;28;20372;-67
2023/03/23 05:14:06;;;;;;;12.07;3.40;;;;;;;11.54;90.67;100054.84;5264957;28;20033;-67
2023/03/23 05:16:37;;;;;;;7.47;2.40;;;;;;;11.53;90.60;100046.19;5264957;28;20383;-67
2023/03/23 05:19:08;;;;;;;11.50;3.37;;;;;;;11.54;90.13;100037.44;5248031;28;20036;-66
2023/03/23 05:21:40;;;;;;;6.97;2.20;;;;;;;11.49;90.18;100028.88;5264067;28;20134;-66
2023/03/23 05:24:12;;;;;;;5.10;2.57;;;;;;;11.52;90.16;100041.00;5265491;28;20353;-66
2023/03/23 05:26:44;;;;;;;10.33;2.77;;;;;;;11.50;90.07;100035.81;5264757;28;20037;-66
2023/03/23 05:29:15;;;;;;;7.75;2.30;;;;;;;11.55;89.92;100044.38;5264372;28;20295;-66
2023/03/23 05:31:47;;;;;;;10.27;2.17;;;;;;;11.49;90.61;100063.69;5264758;28;20409;-66
2023/03/23 05:34:19;;;;;;;7.97;2.47;;;;;;;11.50;90.53;100057.53;5264880;28;20055;-66
2023/03/23 05:36:52;;;;;;;6.87;2.50;;;;;;;11.41;91.73;100054.34;5264499;28;20033;-67
2023/03/23 05:39:24;;;;;;;8.70;2.92;;;;;;;11.34;92.33;100052.81;5263642;28;20037;-67
2023/03/23 05:41:55;;;;;;;9.03;2.80;;;;;;;11.28;93.24;100051.22;5265544;28;20037;-66
2023/03/23 05:44:27;;;;;;;12.30;3.90;;;;;;;11.21;94.11;100052.28;5264608;28;20029;-66
2023/03/23 05:46:58;;;;;;;10.37;3.27;;;;;;;11.17;94.59;100048.88;5265176;28;20087;-66
2023/03/23 05:49:30;;;;;;;8.00;2.87;;;;;;;11.12;95.29;100054.25;5265248;28;20035;-66
2023/03/23 05:52:01;;;;;;;9.20;2.63;;;;;;;11.08;95.68;100057.84;5264652;28;20032;-66
2023/03/23 05:54:34;;;;;;;7.97;3.37;;;;;;;11.08;95.80;100052.63;5264598;28;20502;-66
2023/03/23 05:57:05;;;;;;;8.80;2.72;;;;;;;11.03;96.44;100053.63;5263213;28;20106;-67
2023/03/23 05:59:37;;;;;;;7.77;3.20;;;;;;;11.01;96.50;100056.28;5246682;28;20080;-68
2023/03/23 06:02:09;;;;;;;11.47;3.10;;;;;;;11.02;96.38;100050.16;5246523;28;20124;-68
2023/03/23 06:04:41;;;;;;;7.70;2.65;;;;;;;11.07;95.61;100056.09;5265142;28;20025;-68
2023/03/23 06:07:14;;;;;;;10.40;3.00;;;;;;;11.06;96.00;100056.16;5264289;28;20059;-68
2023/03/23 06:09:45;;;;;;;12.63;3.88;;;;;;;11.12;95.53;100051.66;5264282;28;20166;-68
2023/03/23 06:12:19;;;;;;;7.73;2.77;;;;;;;11.19;94.49;100057.56;5262673;28;20059;-67
2023/03/23 06:14:51;;;;;;;11.77;2.65;;;;;;;11.21;94.39;100058.34;5264384;28;20059;-68
2023/03/23 06:17:22;;;;;;;10.70;2.87;;;;;;;11.25;93.83;100074.78;5263050;28;20456;-68
2023/03/23 06:19:54;;;;;;;9.50;2.97;;;;;;;11.26;93.78;100081.72;5264037;28;20511;-68
2023/03/23 06:22:26;;;;;;;8.37;2.97;;;;;;;11.27;93.23;100097.34;5262250;28;20409;-68
2023/03/23 06:24:57;;;;;;;12.23;3.20;;;;;;;11.32;92.87;100092.84;5263777;28;20025;-68
2023/03/23 06:27:30;;;;;;;9.03;2.97;;;;;;;11.34;92.51;100097.19;5263650;28;20302;-69
2023/03/23 06:30:02;;;;;;;10.73;3.60;;;;;;;11.34;92.52;100103.25;5264299;28;20043;-68
2023/03/23 06:32:34;;;;;;;9.30;3.10;;;;;;;11.35;92.26;100099.75;5263506;28;20032;-68
2023/03/23 06:35:09;;;;;;;9.50;2.87;;;;;;;11.39;91.30;100117.00;5262274;28;20032;-68
2023/03/23 06:37:40;;;;;;;10.95;3.20;;;;;;;11.39;91.13;100113.56;5263134;28;20064;-69
2023/03/23 06:40:12;;;;;;;8.43;3.90;;;;;;;11.45;90.13;100118.63;5263461;28;20478;-68
2023/03/23 06:42:43;;;;;;;15.43;2.77;;;;;;;11.43;89.96;100117.78;5263559;28;20336;-68
2023/03/23 06:45:15;;;;;;;11.40;2.57;;;;;;;11.37;90.98;100117.97;5263441;28;20551;-69
2023/03/23 06:47:48;;;;;;;8.53;2.63;;;;;;;11.35;90.95;100114.53;5263376;28;20057;-68
2023/03/23 06:50:20;;;;;;;11.80;3.10;;;;;;;11.38;90.54;100123.16;5261652;28;20037;-68
2023/03/23 06:52:52;;;;;;;14.07;3.27;;;;;;;11.35;90.91;100125.84;5263172;28;20044;-68
2023/03/23 06:55:23;;;;;;;10.87;3.53;;;;;;;11.36;90.81;100122.31;5261899;28;20495;-69
2023/03/23 06:57:55;;;;;;;8.93;2.37;;;;;;;11.37;91.25;100138.84;5262944;28;20431;-68
2023/03/23 07:00:26;;;;;;;9.43;3.17;;;;;;;11.35;90.87;100161.50;5263230;28;20057;-68
2023/03/23 07:02:58;;;;;;;6.90;2.70;;;;;;;11.17;93.28;100158.44;5262695;28;20059;-68
2023/03/23 07:05:30;;;;;;;12.23;2.53;;;;;;;10.83;97.83;100143.63;5263009;28;20070;-68
2023/03/23 07:08:03;;;;;;;9.47;2.67;;;;;;;10.58;100.00;100143.38;5262766;28;20043;-67
2023/03/23 07:10:34;;;;;;;12.20;3.13;;;;;;;10.32;100.00;100138.69;5262847;28;20025;-68
2023/03/23 07:13:06;;;;;;;12.37;3.83;;;;;;;10.08;100.00;100133.16;5263476;28;20136;-68
2023/03/23 07:15:38;;;;;;;10.90;3.93;;;;;;;9.85;100.00;100141.41;5262902;28;20086;-68
2023/03/23 07:18:10;;;;;;;9.95;2.88;;;;;;;9.74;100.00;100159.00;5262709;28;20033;-69
2023/03/23 07:20:42;;;;;;;7.60;2.63;;;;;;;9.58;100.00;100161.91;5263258;28;20479;-68
2023/03/23 07:23:13;;;;;;;10.87;2.60;;;;;;;9.53;100.00;100168.06;5262776;28;20036;-68
2023/03/23 07:25:47;;;;;;;12.03;3.00;;;;;;;9.45;100.00;100176.88;5244881;28;20082;-68
2023/03/23 07:28:18;;;;;;;11.60;3.30;;;;;;;9.43;100.00;100168.22;5262526;28;20044;-69
2023/03/23 07:30:51;;;;;;;10.43;3.73;;;;;;;9.41;100.00;100195.19;5262655;28;20033;-68
2023/03/23 07:33:23;;;;;;;10.00;3.38;;;;;;;9.37;100.00;100186.56;5262221;28;20033;-69
2023/03/23 07:35:54;;;;;;;11.63;3.90;;;;;;;9.35;100.00;100193.53;5262091;28;20499;-68
2023/03/23 07:38:27;;;;;;;31.90;4.70;;;;;;;9.08;100.00;100221.72;5262461;28;20294;-69
2023/03/23 07:40:58;;;;;;;;;;;;;;;8.84;100.00;100181.38;5263186;28;20033;-68
2023/03/23 07:43:30;;;;;;;4.93;1.75;;;;;;;8.68;100.00;100169.50;5262799;28;19956;-68
2023/03/23 07:46:01;;;;;;;8.10;3.27;;;;;;;8.63;100.00;100171.28;5245661;28;20064;-67
2023/03/23 07:48:32;;;;;;;5.10;2.20;;;;;;;8.69;100.00;100161.66;5263090;28;20044;-67
2023/03/23 07:51:05;;;;;;;7.63;2.27;;;;;;;8.76;100.00;100172.84;5262778;28;20068;-67
2023/03/23 07:53:37;;;;;;;5.97;2.15;;;;;;;8.74;100.00;100175.44;5262347;28;20029;-67
2023/03/23 07:56:09;;;;;;;9.87;2.97;;;;;;;8.81;100.00;100183.16;5262227;28;20040;-68
2023/03/23 07:58:41;;;;;;;9.25;2.65;;;;;;;8.85;100.00;100192.59;5262489;28;20033;-67
2023/03/23 08:01:13;;;;;;;7.20;2.60;;;;;;;8.85;100.00;100196.06;5262872;28;20080;-67
2023/03/23 08:03:45;;;;;;;5.90;2.40;;;;;;;8.80;100.00;100191.81;5265797;28;20048;-68
2023/03/23 08:06:16;;;;;;;6.23;2.07;;;;;;;8.79;100.00;100200.50;5266594;28;20365;-67
2023/03/23 08:08:48;;;;;;;4.23;2.07;;;;;;;8.71;100.00;100203.19;5267037;28;20033;-67
2023/03/23 08:11:19;;;;;;;3.60;1.90;;;;;;;8.68;100.00;100218.88;5266699;28;20060;-67
2023/03/23 08:13:51;;;;;;;4.57;1.80;;;;;;;8.60;100.00;100224.16;5266621;28;20071;-67
2023/03/23 08:16:22;;;;;;;6.40;2.03;;;;;;;8.59;100.00;100230.22;5266859;28;20372;-67
2023/03/23 08:18:54;;;;;;;5.53;1.63;;;;;;;8.63;100.00;100237.09;5266208;28;20061;-67
2023/03/23 08:21:26;;;;;;;3.87;1.30;;;;;;;8.58;100.00;100226.78;5266453;28;20225;-67
2023/03/23 08:23:57;;;;;;;7.22;1.52;;;;;;;8.62;100.00;100216.34;5266294;28;20029;-67
2023/03/23 08:26:29;;;;;;;5.27;2.57;;;;;;;8.57;100.00;100219.84;5266927;28;20029;-67
2023/03/23 08:29:00;;;;;;;3.57;1.70;;;;;;;8.58;100.00;100226.78;5265373;28;20045;-67
2023/03/23 08:31:34;;;;;;;8.17;1.50;;;;;;;8.56;100.00;100220.75;5266208;28;20063;-68
2023/03/23 08:34:05;;;;;;;4.60;1.83;;;;;;;8.56;100.00;100212.06;5266475;28;20029;-68
2023/03/23 08:36:37;;;;;;;6.43;1.90;;;;;;;8.58;100.00;100220.69;5266034;28;20036;-67
2023/03/23 08:39:09;;;;;;;6.93;2.27;;;;;;;8.58;100.00;100215.50;5266463;28;20108;-68
2023/03/23 08:41:41;;;;;;;4.30;1.63;;;;;;;8.66;100.00;100216.28;5265996;28;20041;-67
2023/03/23 08:44:12;;;;;;;7.90;2.70;;;;;;;8.72;100.00;100223.97;5265874;28;20094;-68
2023/03/23 08:46:44;;;;;;;5.27;1.80;;;;;;;8.75;100.00;100210.09;5264515;28;20116;-68
2023/03/23 08:49:15;;;;;;;4.43;1.80;;;;;;;8.73;100.00;100220.50;5265883;28;20090;-67
2023/03/23 08:51:47;;;;;;;12.40;2.60;;;;;;;8.75;100.00;100221.31;5266312;28;20048;-67
2023/03/23 08:54:19;;;;;;;3.10;1.60;;;;;;;8.80;100.00;100225.63;5265701;28;20037;-68
2023/03/23 08:56:50;;;;;;;6.50;1.90;;;;;;;8.80;100.00;100226.47;5264151;28;20033;-67
2023/03/23 08:59:22;;;;;;;4.10;1.77;;;;;;;8.86;100.00;100228.97;5265660;28;20551;-68
2023/03/23 09:01:54;;;;;;;6.50;1.98;;;;;;;8.88;100.00;100249.75;5265438;28;20123;-67
2023/03/23 09:04:26;;;;;;;5.30;2.00;;;;;;;8.82;100.00;100242.03;5263793;28;20120;-69
2023/03/23 09:06:57;;;;;;;6.60;1.73;;;;;;;8.86;100.00;100241.13;5264348;28;20029;-68
2023/03/23 09:09:29;;;;;;;3.60;1.50;;;;;;;8.92;100.00;100228.03;5265367;28;20033;-68
2023/03/23 09:12:00;;;;;;;7.40;2.33;;;;;;;9.02;100.00;100216.59;5265172;28;20036;-68
2023/03/23 09:14:32;;;;;;;6.63;2.20;;;;;;;9.30;100.00;100208.34;5265609;28;20029;-68
2023/03/23 09:17:04;;;;;;;5.80;2.33;;;;;;;9.36;100.00;100226.47;5265246;28;20532;-68
2023/03/23 09:19:36;;;;;;;6.38;2.10;;;;;;;9.40;100.00;100238.56;5265164;28;20024;-68
2023/03/23 09:22:08;;;;;;;5.17;2.00;;;;;;;9.48;100.00;100241.00;5265142;28;20164;-68
2023/03/23 09:24:40;;;;;;;8.07;2.20;;;;;;;9.30;100.00;100240.41;5265071;28;20028;-68
2023/03/23 09:27:12;;;;;;;6.95;2.35;;;;;;;9.29;100.00;100230.06;5264889;28;20116;-68
2023/03/23 09:29:45;;;;;;;4.40;1.67;;;;;;;9.28;100.00;100238.75;5264874;28;20168;-68
2023/03/23 09:32:16;;;;;;;;;;;;;;;9.26;100.00;100235.31;5264018;28;20048;-68
2023/03/23 09:34:47;;;;;;;8.05;2.63;;;;;;;9.35;100.00;100229.94;5264498;28;20373;-68
2023/03/23 09:37:20;;;;;;;6.60;2.07;;;;;;;9.42;100.00;100233.31;5247379;28;20354;-68
2023/03/23 09:39:53;;;;;;;6.95;2.10;;;;;;;9.56;100.00;100243.47;5264670;28;20112;-68
2023/03/23 09:42:41;;;;;;;6.47;1.90;;;;;;;9.66;100.00;100248.50;5264736;28;20484;-68
2023/03/23 09:45:32;;;;;;;6.88;2.58;;;;;;;10.04;100.00;100246.06;5264570;28;20025;-68
2023/03/23 09:48:36;;;;;;;5.60;1.95;;;;;;;10.50;100.00;100258.22;5264035;28;20048;-66
2023/03/23 09:51:42;;;;;;;5.20;1.83;;;;;;;10.82;100.00;100251.44;5265038;28;20025;-66
2023/03/23 09:54:37;;;;;;;5.95;1.83;;;;;;;11.20;100.00;100243.63;5248230;28;20563;-67
2023/03/23 09:57:37;;;;;;;5.07;1.80;;;;;;;11.40;100.00;100248.34;5264010;28;20107;-67
2023/03/23 10:00:21;;;;;;;7.72;2.08;;;;;;;11.68;100.00;100249.34;5264693;28;20053;-68
2023/03/23 10:03:02;;;;;;;5.15;2.05;;;;;;;12.13;99.66;100256.03;5264967;28;20500;-68
2023/03/23 10:05:36;;;;;;;3.28;1.90;;;;;;;12.34;97.74;100257.19;5264504;28;20032;-66
2023/03/23 10:08:19;;;;;;;4.43;1.63;;;;;;;12.69;95.95;100265.78;5263850;28;20028;-69
2023/03/23 10:11:13;;;;;;;3.88;1.77;;;;;;;12.69;95.65;100255.31;5264681;28;20040;-67
2023/03/23 10:13:44;;;;;;;4.80;2.45;;;;;;;13.10;90.88;100250.53;5264373;28;20079;-68
2023/03/23 10:16:21;;;;;;;4.83;1.63;;;;;;;13.37;88.06;100279.41;5264110;28;20032;-67
2023/03/23 10:19:17;;;;;;;3.33;1.50;;;;;;;13.40;86.52;100281.91;5264292;28;20025;-67
2023/03/23 10:21:52;;;;;;;10.13;2.45;;;;;;;13.47;85.84;100280.78;5263962;28;20033;-68
2023/03/23 10:24:34;;;;;;;3.28;1.77;;;;;;;13.98;84.74;100273.00;5263139;28;20039;-67
2023/03/23 10:27:08;;;;;;;4.88;2.08;;;;;;;14.62;82.81;100272.47;5263760;28;20037;-67
2023/03/23 10:29:46;;;;;;;5.75;2.17;;;;;;;15.83;77.73;100287.75;5263926;28;20028;-68
2023/03/23 10:32:22;;;;;;;5.72;2.17;;;;;;;15.74;74.97;100292.53;5263975;28;20082;-69
2023/03/23 10:35:01;;;;;;;7.07;2.78;;;;;;;14.94;76.36;100294.84;5262516;28;20064;-68
2023/03/23 10:37:37;;;;;;;6.40;2.83;;;;;;;14.18;79.45;100288.00;5263706;28;20044;-68
2023/03/23 10:40:29;;;;;;;7.53;2.28;;;;;;;14.84;80.71;100282.13;5263870;28;20111;-68
2023/03/23 10:43:01;;;;;;;7.47;2.42;;;;;;;14.47;77.38;100291.34;5263655;28;20490;-68
2023/03/23 10:45:34;;;;;;;5.78;2.22;;;;;;;13.79;81.25;100288.50;5264078;28;20028;-68
2023/03/23 10:48:19;;;;;;;4.45;1.88;;;;;;;13.89;80.52;100278.56;5263649;28;20056;-69
2023/03/23 10:50:54;;;;;;;6.30;2.40;;;;;;;13.35;82.65;100281.22;5263583;28;20504;-68
2023/03/23 10:53:34;;;;;;;5.18;2.60;;;;;;;13.52;84.64;100271.94;5262791;28;20040;-68
2023/03/23 10:56:22;;;;;;;5.63;2.15;;;;;;;14.33;81.14;100281.34;5263500;28;20418;-69
2023/03/23 10:58:54;;;;;;;7.70;2.05;;;;;;;15.16;80.56;100274.75;5263552;28;20029;-68
2023/03/23 11:01:32;;;;;;;4.50;2.40;;;;;;;15.02;76.82;100270.03;5263277;28;20449;-68
2023/03/23 11:04:04;;;;;;;8.05;2.47;;;;;;;15.34;75.88;100273.16;5245549;28;20453;-68
2023/03/23 11:06:39;;;;;;;8.10;2.75;;;;;;;15.33;76.62;100267.06;5263361;28;20354;-67
2023/03/23 11:09:15;;;;;;;6.80;2.63;;;;;;;14.82;73.65;100269.06;5263094;28;20433;-67
2023/03/23 11:11:55;;;;;;;6.13;2.83;;;;;;;15.28;73.89;100269.03;5262949;28;20036;-68
2023/03/23 11:14:38;;;;;;;6.00;2.30;;;;;;;15.02;72.88;100267.41;5263387;28;20032;-67
2023/03/23 11:17:25;;;;;;;6.85;2.80;;;;;;;14.87;73.12;100261.00;5263570;28;20104;-68
2023/03/23 11:19:56;;;;;;;7.20;2.50;;;;;;;15.55;71.07;100271.41;5262850;28;20037;-67
2023/03/23 11:22:31;;;;;;;7.03;2.37;;;;;;;15.61;70.66;100289.56;5263032;28;20032;-68
2023/03/23 11:25:05;;;;;;;6.70;2.35;;;;;;;14.98;71.27;100274.56;5262762;28;20032;-67
2023/03/23 11:27:38;;;;;;;6.32;2.30;;;;;;;15.04;68.28;100270.88;5262852;28;20036;-67
2023/03/23 11:30:12;;;;;;;6.35;2.42;;;;;;;14.65;69.59;100277.59;5262640;28;20056;-67
2023/03/23 11:32:45;;;;;;;8.98;2.40;;;;;;;14.77;70.79;100276.25;5262840;28;20029;-67
2023/03/23 11:35:27;;;;;;;7.65;2.92;;;;;;;14.62;72.87;100284.69;5262597;28;20342;-68
2023/03/23 11:37:59;;;;;;;7.15;2.75;;;;;;;13.77;73.71;100295.56;5262752;28;20085;-67
2023/03/23 11:40:31;;;;;;;4.57;1.70;;;;;;;13.54;75.08;100291.94;5262181;28;20040;-67
2023/03/23 11:43:15;;;;;;;5.82;2.50;;;;;;;13.85;76.83;100296.16;5262619;28;20411;-68
2023/03/23 11:46:15;;;;;;;7.40;2.25;;;;;;;14.57;76.14;100295.31;5262912;28;20029;-67
2023/03/23 11:49:04;;;;;;;3.75;1.73;;;;;;;15.86;71.06;100289.41;5263011;28;20082;-68
2023/03/23 11:51:48;;;;;;;3.20;1.60;;;;;;;15.70;67.26;100297.06;5262163;28;20039;-68
2023/03/23 11:54:20;;;;;;;3.28;1.92;;;;;;;16.47;68.08;100293.75;5263246;28;20029;-68
2023/03/23 11:56:52;;;;;;;4.60;1.83;;;;;;;17.79;61.60;100277.81;5262360;28;20048;-68
2023/03/23 11:59:36;;;;;;;4.15;1.98;;;;;;;18.14;58.54;100296.28;5262125;28;20107;-68